sensor_id;sensor_type;location;lat;lon;timestamp;P1;durP1;ratioP1;P2;durP2;ratioP2
22334;SDS011;11335;43.848;25.958;2022-08-18T00:02:16;10.05;;;7.75;;
22334;SDS011;11335;43.848;25.958;2022-08-18T00:05:02;12.95;;;8.15;;
22334;SDS011;11335;43.848;25.958;2022-08-18T00:07:48;14.73;;;8.57;;
22334;SDS011;11335;43.848;25.958;2022-08-18T00:10:34;11.32;;;8.15;;
22334;SDS011;11335;43.848;25.958;2022-08-18T00:13:20;11.18;;;8.15;;
22334;SDS011;11335;43.848;25.958;2022-08-18T00:16:05;25.88;;;9.68;;
22334;SDS011;11335;43.848;25.958;2022-08-18T00:18:51;19.05;;;8.88;;
22334;SDS011;11335;43.848;25.958;2022-08-18T00:21:37;20.33;;;10.05;;
22334;SDS011;11335;43.848;25.958;2022-08-18T00:24:23;19.13;;;10.98;;
22334;SDS011;11335;43.848;25.958;2022-08-18T00:27:09;17.27;;;9.75;;
22334;SDS011;11335;43.848;25.958;2022-08-18T00:29:57;15.05;;;9.68;;
22334;SDS011;11335;43.848;25.958;2022-08-18T00:32:52;16.08;;;10.30;;
22334;SDS011;11335;43.848;25.958;2022-08-18T00:35:39;17.23;;;9.98;;
22334;SDS011;11335;43.848;25.958;2022-08-18T00:38:25;16.83;;;9.88;;
22334;SDS011;11335;43.848;25.958;2022-08-18T00:41:11;18.25;;;9.90;;
22334;SDS011;11335;43.848;25.958;2022-08-18T00:43:57;19.90;;;9.52;;
22334;SDS011;11335;43.848;25.958;2022-08-18T00:46:43;14.80;;;9.23;;
22334;SDS011;11335;43.848;25.958;2022-08-18T00:49:28;19.00;;;9.77;;
22334;SDS011;11335;43.848;25.958;2022-08-18T00:52:14;20.27;;;9.98;;
22334;SDS011;11335;43.848;25.958;2022-08-18T00:55:01;21.02;;;9.73;;
22334;SDS011;11335;43.848;25.958;2022-08-18T00:57:48;21.90;;;9.43;;
22334;SDS011;11335;43.848;25.958;2022-08-18T01:00:36;22.02;;;9.85;;
22334;SDS011;11335;43.848;25.958;2022-08-18T01:03:22;20.75;;;9.52;;
22334;SDS011;11335;43.848;25.958;2022-08-18T01:06:11;20.58;;;9.20;;
22334;SDS011;11335;43.848;25.958;2022-08-18T01:09:02;22.23;;;9.85;;
22334;SDS011;11335;43.848;25.958;2022-08-18T01:11:48;19.38;;;9.60;;
22334;SDS011;11335;43.848;25.958;2022-08-18T01:14:36;16.33;;;9.48;;
22334;SDS011;11335;43.848;25.958;2022-08-18T01:17:23;15.68;;;9.82;;
22334;SDS011;11335;43.848;25.958;2022-08-18T01:20:32;14.38;;;8.73;;
22334;SDS011;11335;43.848;25.958;2022-08-18T01:23:44;16.92;;;9.77;;
22334;SDS011;11335;43.848;25.958;2022-08-18T01:26:34;14.60;;;8.75;;
22334;SDS011;11335;43.848;25.958;2022-08-18T01:29:22;19.75;;;9.23;;
22334;SDS011;11335;43.848;25.958;2022-08-18T01:32:08;15.32;;;9.23;;
22334;SDS011;11335;43.848;25.958;2022-08-18T01:34:55;19.45;;;9.60;;
22334;SDS011;11335;43.848;25.958;2022-08-18T01:37:41;14.23;;;9.00;;
22334;SDS011;11335;43.848;25.958;2022-08-18T01:40:26;17.27;;;8.90;;
22334;SDS011;11335;43.848;25.958;2022-08-18T01:43:12;13.80;;;9.07;;
22334;SDS011;11335;43.848;25.958;2022-08-18T01:45:59;12.07;;;8.52;;
22334;SDS011;11335;43.848;25.958;2022-08-18T01:48:46;17.77;;;9.45;;
22334;SDS011;11335;43.848;25.958;2022-08-18T01:51:33;17.98;;;8.35;;
22334;SDS011;11335;43.848;25.958;2022-08-18T01:54:21;11.00;;;8.57;;
22334;SDS011;11335;43.848;25.958;2022-08-18T01:57:07;9.13;;;8.10;;
22334;SDS011;11335;43.848;25.958;2022-08-18T01:59:57;9.65;;;8.65;;
22334;SDS011;11335;43.848;25.958;2022-08-18T02:02:45;11.90;;;8.18;;
22334;SDS011;11335;43.848;25.958;2022-08-18T02:05:33;12.82;;;8.52;;
22334;SDS011;11335;43.848;25.958;2022-08-18T02:08:29;15.20;;;8.55;;
22334;SDS011;11335;43.848;25.958;2022-08-18T02:11:15;10.65;;;8.60;;
22334;SDS011;11335;43.848;25.958;2022-08-18T02:14:01;10.27;;;8.10;;
22334;SDS011;11335;43.848;25.958;2022-08-18T02:16:47;9.63;;;7.82;;
22334;SDS011;11335;43.848;25.958;2022-08-18T02:19:40;10.68;;;8.20;;
22334;SDS011;11335;43.848;25.958;2022-08-18T02:22:30;10.13;;;7.95;;
22334;SDS011;11335;43.848;25.958;2022-08-18T02:25:17;13.07;;;7.93;;
22334;SDS011;11335;43.848;25.958;2022-08-18T02:28:03;9.52;;;7.53;;
22334;SDS011;11335;43.848;25.958;2022-08-18T02:30:50;8.50;;;7.47;;
22334;SDS011;11335;43.848;25.958;2022-08-18T02:33:36;12.38;;;8.38;;
22334;SDS011;11335;43.848;25.958;2022-08-18T02:36:22;12.23;;;7.93;;
22334;SDS011;11335;43.848;25.958;2022-08-18T02:39:07;15.85;;;8.82;;
22334;SDS011;11335;43.848;25.958;2022-08-18T02:41:53;13.27;;;8.57;;
22334;SDS011;11335;43.848;25.958;2022-08-18T02:44:39;9.02;;;8.13;;
22334;SDS011;11335;43.848;25.958;2022-08-18T02:47:25;15.38;;;8.90;;
22334;SDS011;11335;43.848;25.958;2022-08-18T02:50:11;13.82;;;8.57;;
22334;SDS011;11335;43.848;25.958;2022-08-18T02:52:57;14.85;;;8.27;;
22334;SDS011;11335;43.848;25.958;2022-08-18T02:55:46;12.60;;;8.82;;
22334;SDS011;11335;43.848;25.958;2022-08-18T02:58:33;10.90;;;8.07;;
22334;SDS011;11335;43.848;25.958;2022-08-18T03:01:19;10.43;;;8.77;;
22334;SDS011;11335;43.848;25.958;2022-08-18T03:04:07;12.63;;;8.80;;
22334;SDS011;11335;43.848;25.958;2022-08-18T03:06:54;9.68;;;8.63;;
22334;SDS011;11335;43.848;25.958;2022-08-18T03:09:41;11.93;;;8.73;;
22334;SDS011;11335;43.848;25.958;2022-08-18T03:12:27;11.90;;;8.65;;
22334;SDS011;11335;43.848;25.958;2022-08-18T03:15:13;20.00;;;9.25;;
22334;SDS011;11335;43.848;25.958;2022-08-18T03:17:59;15.20;;;8.90;;
22334;SDS011;11335;43.848;25.958;2022-08-18T03:20:45;10.45;;;8.68;;
22334;SDS011;11335;43.848;25.958;2022-08-18T03:23:31;11.57;;;9.02;;
22334;SDS011;11335;43.848;25.958;2022-08-18T03:26:18;10.10;;;8.20;;
22334;SDS011;11335;43.848;25.958;2022-08-18T03:29:05;11.50;;;8.98;;
22334;SDS011;11335;43.848;25.958;2022-08-18T03:31:51;11.00;;;7.93;;
22334;SDS011;11335;43.848;25.958;2022-08-18T03:34:37;12.65;;;8.73;;
22334;SDS011;11335;43.848;25.958;2022-08-18T03:37:23;12.18;;;9.13;;
22334;SDS011;11335;43.848;25.958;2022-08-18T03:40:09;12.15;;;9.20;;
22334;SDS011;11335;43.848;25.958;2022-08-18T03:42:58;13.77;;;9.48;;
22334;SDS011;11335;43.848;25.958;2022-08-18T03:45:46;11.18;;;9.00;;
22334;SDS011;11335;43.848;25.958;2022-08-18T03:48:32;12.15;;;9.30;;
22334;SDS011;11335;43.848;25.958;2022-08-18T03:51:19;13.25;;;9.45;;
22334;SDS011;11335;43.848;25.958;2022-08-18T03:54:06;13.98;;;10.00;;
22334;SDS011;11335;43.848;25.958;2022-08-18T03:56:52;11.68;;;9.38;;
22334;SDS011;11335;43.848;25.958;2022-08-18T03:59:39;13.25;;;9.50;;
22334;SDS011;11335;43.848;25.958;2022-08-18T04:02:28;14.43;;;9.35;;
22334;SDS011;11335;43.848;25.958;2022-08-18T04:05:14;15.32;;;9.85;;
22334;SDS011;11335;43.848;25.958;2022-08-18T04:08:00;14.70;;;10.00;;
22334;SDS011;11335;43.848;25.958;2022-08-18T04:10:47;17.15;;;10.10;;
22334;SDS011;11335;43.848;25.958;2022-08-18T04:13:33;20.85;;;10.88;;
22334;SDS011;11335;43.848;25.958;2022-08-18T04:16:27;25.02;;;12.07;;
22334;SDS011;11335;43.848;25.958;2022-08-18T04:19:14;27.05;;;11.68;;
22334;SDS011;11335;43.848;25.958;2022-08-18T04:22:01;21.35;;;11.88;;
22334;SDS011;11335;43.848;25.958;2022-08-18T04:24:50;22.33;;;11.02;;
22334;SDS011;11335;43.848;25.958;2022-08-18T04:27:36;26.15;;;11.27;;
22334;SDS011;11335;43.848;25.958;2022-08-18T04:30:27;24.13;;;12.43;;
22334;SDS011;11335;43.848;25.958;2022-08-18T04:33:13;21.27;;;10.68;;
22334;SDS011;11335;43.848;25.958;2022-08-18T04:36:05;21.45;;;11.63;;
22334;SDS011;11335;43.848;25.958;2022-08-18T04:38:52;15.13;;;10.32;;
22334;SDS011;11335;43.848;25.958;2022-08-18T04:41:39;13.88;;;10.60;;
22334;SDS011;11335;43.848;25.958;2022-08-18T04:44:27;14.38;;;10.73;;
22334;SDS011;11335;43.848;25.958;2022-08-18T04:47:13;17.48;;;11.50;;
22334;SDS011;11335;43.848;25.958;2022-08-18T04:49:59;16.92;;;11.60;;
22334;SDS011;11335;43.848;25.958;2022-08-18T04:52:45;15.93;;;11.77;;
22334;SDS011;11335;43.848;25.958;2022-08-18T04:55:49;14.23;;;11.20;;
22334;SDS011;11335;43.848;25.958;2022-08-18T04:58:37;17.60;;;10.82;;
22334;SDS011;11335;43.848;25.958;2022-08-18T05:01:25;17.40;;;11.05;;
22334;SDS011;11335;43.848;25.958;2022-08-18T05:04:15;15.82;;;11.20;;
22334;SDS011;11335;43.848;25.958;2022-08-18T05:07:05;15.43;;;11.07;;
22334;SDS011;11335;43.848;25.958;2022-08-18T05:09:52;16.90;;;11.25;;
22334;SDS011;11335;43.848;25.958;2022-08-18T05:12:39;16.48;;;10.98;;
22334;SDS011;11335;43.848;25.958;2022-08-18T05:15:26;16.48;;;11.60;;
22334;SDS011;11335;43.848;25.958;2022-08-18T05:18:12;16.13;;;11.18;;
22334;SDS011;11335;43.848;25.958;2022-08-18T05:20:58;13.93;;;11.20;;
22334;SDS011;11335;43.848;25.958;2022-08-18T05:23:45;15.95;;;11.48;;
22334;SDS011;11335;43.848;25.958;2022-08-18T05:26:32;17.15;;;11.55;;
22334;SDS011;11335;43.848;25.958;2022-08-18T05:29:19;21.95;;;11.80;;
22334;SDS011;11335;43.848;25.958;2022-08-18T05:32:06;18.02;;;11.70;;
22334;SDS011;11335;43.848;25.958;2022-08-18T05:34:52;21.02;;;12.82;;
22334;SDS011;11335;43.848;25.958;2022-08-18T05:40:55;18.13;;;12.52;;
22334;SDS011;11335;43.848;25.958;2022-08-18T05:43:50;17.90;;;13.10;;
22334;SDS011;11335;43.848;25.958;2022-08-18T05:46:45;15.82;;;11.48;;
22334;SDS011;11335;43.848;25.958;2022-08-18T05:49:36;19.00;;;11.43;;
22334;SDS011;11335;43.848;25.958;2022-08-18T05:55:23;20.95;;;10.90;;
22334;SDS011;11335;43.848;25.958;2022-08-18T05:58:39;24.08;;;11.68;;
22334;SDS011;11335;43.848;25.958;2022-08-18T06:01:30;22.98;;;11.77;;
22334;SDS011;11335;43.848;25.958;2022-08-18T06:07:17;20.90;;;11.93;;
22334;SDS011;11335;43.848;25.958;2022-08-18T06:10:11;20.85;;;12.50;;
22334;SDS011;11335;43.848;25.958;2022-08-18T06:12:58;20.27;;;12.02;;
22334;SDS011;11335;43.848;25.958;2022-08-18T06:19:00;22.52;;;13.55;;
22334;SDS011;11335;43.848;25.958;2022-08-18T06:25:25;16.55;;;11.73;;
22334;SDS011;11335;43.848;25.958;2022-08-18T06:28:18;18.52;;;11.30;;
22334;SDS011;11335;43.848;25.958;2022-08-18T06:31:11;18.95;;;11.52;;
22334;SDS011;11335;43.848;25.958;2022-08-18T06:40:13;20.63;;;12.10;;
22334;SDS011;11335;43.848;25.958;2022-08-18T06:42:59;19.10;;;12.00;;
22334;SDS011;11335;43.848;25.958;2022-08-18T06:45:45;17.60;;;12.50;;
22334;SDS011;11335;43.848;25.958;2022-08-18T06:48:36;17.40;;;12.23;;
22334;SDS011;11335;43.848;25.958;2022-08-18T06:51:30;14.52;;;11.38;;
22334;SDS011;11335;43.848;25.958;2022-08-18T06:57:02;20.45;;;11.70;;
22334;SDS011;11335;43.848;25.958;2022-08-18T06:59:55;19.70;;;13.43;;
22334;SDS011;11335;43.848;25.958;2022-08-18T07:06:01;17.50;;;10.65;;
22334;SDS011;11335;43.848;25.958;2022-08-18T07:09:22;18.05;;;11.57;;
22334;SDS011;11335;43.848;25.958;2022-08-18T07:12:09;17.77;;;12.75;;
22334;SDS011;11335;43.848;25.958;2022-08-18T07:15:03;22.40;;;12.57;;
22334;SDS011;11335;43.848;25.958;2022-08-18T07:17:52;16.33;;;11.65;;
22334;SDS011;11335;43.848;25.958;2022-08-18T07:20:51;15.60;;;11.55;;
22334;SDS011;11335;43.848;25.958;2022-08-18T07:23:42;16.35;;;11.70;;
22334;SDS011;11335;43.848;25.958;2022-08-18T07:26:28;17.80;;;11.95;;
22334;SDS011;11335;43.848;25.958;2022-08-18T07:29:14;18.17;;;12.60;;
22334;SDS011;11335;43.848;25.958;2022-08-18T07:32:11;18.67;;;13.13;;
22334;SDS011;11335;43.848;25.958;2022-08-18T07:35:04;22.17;;;12.63;;
22334;SDS011;11335;43.848;25.958;2022-08-18T07:37:59;19.88;;;11.27;;
22334;SDS011;11335;43.848;25.958;2022-08-18T07:40:54;18.60;;;13.00;;
22334;SDS011;11335;43.848;25.958;2022-08-18T07:49:48;16.90;;;12.32;;
22334;SDS011;11335;43.848;25.958;2022-08-18T07:52:39;15.18;;;11.65;;
22334;SDS011;11335;43.848;25.958;2022-08-18T07:55:45;19.65;;;12.13;;
22334;SDS011;11335;43.848;25.958;2022-08-18T07:58:43;19.50;;;12.63;;
22334;SDS011;11335;43.848;25.958;2022-08-18T08:07:31;15.98;;;11.00;;
22334;SDS011;11335;43.848;25.958;2022-08-18T08:13:53;19.85;;;11.25;;
22334;SDS011;11335;43.848;25.958;2022-08-18T08:16:47;12.88;;;10.68;;
22334;SDS011;11335;43.848;25.958;2022-08-18T08:19:40;13.55;;;12.13;;
22334;SDS011;11335;43.848;25.958;2022-08-18T08:25:23;12.52;;;10.60;;
22334;SDS011;11335;43.848;25.958;2022-08-18T08:31:31;15.15;;;10.52;;
22334;SDS011;11335;43.848;25.958;2022-08-18T08:37:41;16.73;;;12.20;;
22334;SDS011;11335;43.848;25.958;2022-08-18T08:41:00;18.50;;;12.55;;
22334;SDS011;11335;43.848;25.958;2022-08-18T08:44:06;13.70;;;11.23;;
22334;SDS011;11335;43.848;25.958;2022-08-18T08:47:04;15.75;;;11.15;;
22334;SDS011;11335;43.848;25.958;2022-08-18T08:50:13;13.40;;;10.52;;
22334;SDS011;11335;43.848;25.958;2022-08-18T08:56:11;12.23;;;10.75;;
22334;SDS011;11335;43.848;25.958;2022-08-18T08:59:04;18.23;;;11.95;;
22334;SDS011;11335;43.848;25.958;2022-08-18T09:08:04;20.65;;;11.85;;
22334;SDS011;11335;43.848;25.958;2022-08-18T09:23:38;12.13;;;9.95;;
22334;SDS011;11335;43.848;25.958;2022-08-18T09:29:26;11.18;;;9.23;;
22334;SDS011;11335;43.848;25.958;2022-08-18T09:33:17;17.00;;;9.30;;
22334;SDS011;11335;43.848;25.958;2022-08-18T09:42:40;10.32;;;7.78;;
22334;SDS011;11335;43.848;25.958;2022-08-18T09:48:33;12.05;;;7.93;;
22334;SDS011;11335;43.848;25.958;2022-08-18T09:51:34;9.30;;;7.90;;
22334;SDS011;11335;43.848;25.958;2022-08-18T10:05:32;8.50;;;7.68;;
22334;SDS011;11335;43.848;25.958;2022-08-18T10:08:28;13.02;;;8.93;;
22334;SDS011;11335;43.848;25.958;2022-08-18T10:11:27;9.10;;;8.20;;
22334;SDS011;11335;43.848;25.958;2022-08-18T10:21:17;10.23;;;8.75;;
22334;SDS011;11335;43.848;25.958;2022-08-18T10:24:15;10.70;;;9.27;;
22334;SDS011;11335;43.848;25.958;2022-08-18T10:27:08;12.95;;;9.00;;
22334;SDS011;11335;43.848;25.958;2022-08-18T10:36:45;12.15;;;8.80;;
22334;SDS011;11335;43.848;25.958;2022-08-18T10:42:24;12.27;;;8.80;;
22334;SDS011;11335;43.848;25.958;2022-08-18T10:53:50;17.75;;;9.77;;
22334;SDS011;11335;43.848;25.958;2022-08-18T10:57:20;12.02;;;8.38;;
22334;SDS011;11335;43.848;25.958;2022-08-18T11:00:20;9.88;;;8.15;;
22334;SDS011;11335;43.848;25.958;2022-08-18T11:03:27;11.52;;;8.63;;
22334;SDS011;11335;43.848;25.958;2022-08-18T11:06:36;10.38;;;8.55;;
22334;SDS011;11335;43.848;25.958;2022-08-18T11:09:28;12.23;;;8.07;;
22334;SDS011;11335;43.848;25.958;2022-08-18T11:12:15;15.40;;;8.40;;
22334;SDS011;11335;43.848;25.958;2022-08-18T11:18:46;12.85;;;8.00;;
22334;SDS011;11335;43.848;25.958;2022-08-18T11:21:45;9.50;;;8.07;;
22334;SDS011;11335;43.848;25.958;2022-08-18T11:24:32;11.80;;;7.85;;
22334;SDS011;11335;43.848;25.958;2022-08-18T11:27:24;11.52;;;8.20;;
22334;SDS011;11335;43.848;25.958;2022-08-18T11:30:14;9.93;;;7.65;;
22334;SDS011;11335;43.848;25.958;2022-08-18T11:33:00;11.52;;;8.00;;
22334;SDS011;11335;43.848;25.958;2022-08-18T11:35:46;10.77;;;8.25;;
22334;SDS011;11335;43.848;25.958;2022-08-18T11:38:34;16.55;;;8.07;;
22334;SDS011;11335;43.848;25.958;2022-08-18T11:41:26;10.15;;;8.10;;
22334;SDS011;11335;43.848;25.958;2022-08-18T11:44:14;9.82;;;8.23;;
22334;SDS011;11335;43.848;25.958;2022-08-18T11:47:09;14.60;;;7.90;;
22334;SDS011;11335;43.848;25.958;2022-08-18T11:52:54;13.15;;;8.18;;
22334;SDS011;11335;43.848;25.958;2022-08-18T11:55:41;11.25;;;8.40;;
22334;SDS011;11335;43.848;25.958;2022-08-18T11:58:36;12.10;;;8.05;;
22334;SDS011;11335;43.848;25.958;2022-08-18T12:04:36;9.18;;;7.90;;
22334;SDS011;11335;43.848;25.958;2022-08-18T12:07:32;14.52;;;8.43;;
22334;SDS011;11335;43.848;25.958;2022-08-18T12:10:26;10.90;;;7.88;;
22334;SDS011;11335;43.848;25.958;2022-08-18T12:13:20;14.07;;;8.63;;
22334;SDS011;11335;43.848;25.958;2022-08-18T12:16:09;10.07;;;8.27;;
22334;SDS011;11335;43.848;25.958;2022-08-18T12:19:01;9.77;;;8.30;;
22334;SDS011;11335;43.848;25.958;2022-08-18T12:21:52;11.35;;;7.20;;
22334;SDS011;11335;43.848;25.958;2022-08-18T12:24:40;9.23;;;8.27;;
22334;SDS011;11335;43.848;25.958;2022-08-18T12:27:26;13.63;;;8.18;;
22334;SDS011;11335;43.848;25.958;2022-08-18T12:30:13;14.60;;;8.13;;
22334;SDS011;11335;43.848;25.958;2022-08-18T12:32:59;12.77;;;8.80;;
22334;SDS011;11335;43.848;25.958;2022-08-18T12:35:45;12.30;;;7.97;;
22334;SDS011;11335;43.848;25.958;2022-08-18T12:38:31;10.80;;;8.10;;
22334;SDS011;11335;43.848;25.958;2022-08-18T12:41:18;10.35;;;8.13;;
22334;SDS011;11335;43.848;25.958;2022-08-18T12:44:03;12.57;;;9.15;;
22334;SDS011;11335;43.848;25.958;2022-08-18T12:46:49;12.10;;;9.07;;
22334;SDS011;11335;43.848;25.958;2022-08-18T12:49:36;10.38;;;7.88;;
22334;SDS011;11335;43.848;25.958;2022-08-18T12:52:23;11.15;;;7.97;;
22334;SDS011;11335;43.848;25.958;2022-08-18T12:55:09;9.23;;;7.50;;
22334;SDS011;11335;43.848;25.958;2022-08-18T12:57:54;13.40;;;7.88;;
22334;SDS011;11335;43.848;25.958;2022-08-18T13:00:40;8.55;;;7.68;;
22334;SDS011;11335;43.848;25.958;2022-08-18T13:03:26;10.75;;;7.95;;
22334;SDS011;11335;43.848;25.958;2022-08-18T13:06:12;13.98;;;8.15;;
22334;SDS011;11335;43.848;25.958;2022-08-18T13:08:59;12.40;;;8.13;;
22334;SDS011;11335;43.848;25.958;2022-08-18T13:11:45;8.05;;;7.22;;
22334;SDS011;11335;43.848;25.958;2022-08-18T13:14:31;9.23;;;7.95;;
22334;SDS011;11335;43.848;25.958;2022-08-18T13:17:18;12.55;;;7.80;;
22334;SDS011;11335;43.848;25.958;2022-08-18T13:20:07;8.95;;;7.72;;
22334;SDS011;11335;43.848;25.958;2022-08-18T13:22:55;10.18;;;8.05;;
22334;SDS011;11335;43.848;25.958;2022-08-18T13:25:41;9.30;;;7.82;;
22334;SDS011;11335;43.848;25.958;2022-08-18T13:28:28;10.05;;;8.25;;
22334;SDS011;11335;43.848;25.958;2022-08-18T13:31:15;9.98;;;8.05;;
22334;SDS011;11335;43.848;25.958;2022-08-18T13:34:01;11.82;;;7.80;;
22334;SDS011;11335;43.848;25.958;2022-08-18T13:36:46;9.48;;;8.50;;
22334;SDS011;11335;43.848;25.958;2022-08-18T13:39:32;11.80;;;8.75;;
22334;SDS011;11335;43.848;25.958;2022-08-18T13:42:18;14.43;;;8.70;;
22334;SDS011;11335;43.848;25.958;2022-08-18T13:45:04;11.55;;;8.63;;
22334;SDS011;11335;43.848;25.958;2022-08-18T13:47:50;14.32;;;8.93;;
22334;SDS011;11335;43.848;25.958;2022-08-18T13:50:36;13.80;;;8.55;;
22334;SDS011;11335;43.848;25.958;2022-08-18T13:53:25;13.25;;;8.68;;
22334;SDS011;11335;43.848;25.958;2022-08-18T13:56:11;11.35;;;8.98;;
22334;SDS011;11335;43.848;25.958;2022-08-18T13:58:57;16.17;;;9.55;;
22334;SDS011;11335;43.848;25.958;2022-08-18T14:01:43;19.05;;;9.23;;
22334;SDS011;11335;43.848;25.958;2022-08-18T14:04:30;17.33;;;9.10;;
22334;SDS011;11335;43.848;25.958;2022-08-18T14:07:15;16.20;;;8.68;;
22334;SDS011;11335;43.848;25.958;2022-08-18T14:10:03;19.73;;;9.50;;
22334;SDS011;11335;43.848;25.958;2022-08-18T14:12:53;16.38;;;9.02;;
22334;SDS011;11335;43.848;25.958;2022-08-18T14:15:41;12.23;;;8.60;;
22334;SDS011;11335;43.848;25.958;2022-08-18T14:18:29;14.82;;;8.65;;
22334;SDS011;11335;43.848;25.958;2022-08-18T14:21:15;14.55;;;8.65;;
22334;SDS011;11335;43.848;25.958;2022-08-18T14:24:20;10.57;;;8.20;;
22334;SDS011;11335;43.848;25.958;2022-08-18T14:27:31;12.48;;;8.70;;
22334;SDS011;11335;43.848;25.958;2022-08-18T14:30:19;12.48;;;9.32;;
22334;SDS011;11335;43.848;25.958;2022-08-18T14:33:05;10.95;;;8.38;;
22334;SDS011;11335;43.848;25.958;2022-08-18T14:35:52;16.67;;;9.15;;
22334;SDS011;11335;43.848;25.958;2022-08-18T14:38:38;15.20;;;9.85;;
22334;SDS011;11335;43.848;25.958;2022-08-18T14:41:25;12.38;;;8.98;;
22334;SDS011;11335;43.848;25.958;2022-08-18T14:44:11;10.88;;;8.43;;
22334;SDS011;11335;43.848;25.958;2022-08-18T14:46:57;10.35;;;8.48;;
22334;SDS011;11335;43.848;25.958;2022-08-18T14:49:43;11.27;;;9.18;;
22334;SDS011;11335;43.848;25.958;2022-08-18T14:52:30;14.77;;;9.23;;
22334;SDS011;11335;43.848;25.958;2022-08-18T14:55:16;11.65;;;8.30;;
22334;SDS011;11335;43.848;25.958;2022-08-18T14:58:02;17.15;;;9.00;;
22334;SDS011;11335;43.848;25.958;2022-08-18T15:00:49;13.52;;;8.65;;
22334;SDS011;11335;43.848;25.958;2022-08-18T15:03:35;20.48;;;8.77;;
22334;SDS011;11335;43.848;25.958;2022-08-18T15:06:22;10.65;;;8.88;;
22334;SDS011;11335;43.848;25.958;2022-08-18T15:09:08;8.88;;;7.95;;
22334;SDS011;11335;43.848;25.958;2022-08-18T15:11:54;11.88;;;8.65;;
22334;SDS011;11335;43.848;25.958;2022-08-18T15:14:42;14.88;;;8.77;;
22334;SDS011;11335;43.848;25.958;2022-08-18T15:17:28;11.80;;;8.90;;
22334;SDS011;11335;43.848;25.958;2022-08-18T15:20:14;9.57;;;8.50;;
22334;SDS011;11335;43.848;25.958;2022-08-18T15:23:00;12.25;;;8.70;;
22334;SDS011;11335;43.848;25.958;2022-08-18T15:26:06;10.75;;;8.77;;
22334;SDS011;11335;43.848;25.958;2022-08-18T15:28:52;12.48;;;8.65;;
22334;SDS011;11335;43.848;25.958;2022-08-18T15:31:38;15.85;;;9.13;;
22334;SDS011;11335;43.848;25.958;2022-08-18T15:34:24;16.50;;;9.05;;
22334;SDS011;11335;43.848;25.958;2022-08-18T15:37:09;15.40;;;8.63;;
22334;SDS011;11335;43.848;25.958;2022-08-18T15:39:59;10.25;;;8.98;;
22334;SDS011;11335;43.848;25.958;2022-08-18T15:43:00;10.38;;;8.88;;
22334;SDS011;11335;43.848;25.958;2022-08-18T15:45:51;17.08;;;9.93;;
22334;SDS011;11335;43.848;25.958;2022-08-18T15:48:38;16.13;;;9.57;;
22334;SDS011;11335;43.848;25.958;2022-08-18T15:51:24;12.52;;;9.48;;
22334;SDS011;11335;43.848;25.958;2022-08-18T15:54:10;13.07;;;9.07;;
22334;SDS011;11335;43.848;25.958;2022-08-18T15:56:56;14.30;;;10.00;;
22334;SDS011;11335;43.848;25.958;2022-08-18T15:59:42;11.15;;;8.75;;
22334;SDS011;11335;43.848;25.958;2022-08-18T16:02:28;14.15;;;9.10;;
22334;SDS011;11335;43.848;25.958;2022-08-18T16:05:14;12.07;;;8.80;;
22334;SDS011;11335;43.848;25.958;2022-08-18T16:08:01;13.13;;;9.15;;
22334;SDS011;11335;43.848;25.958;2022-08-18T16:10:49;13.95;;;9.48;;
22334;SDS011;11335;43.848;25.958;2022-08-18T16:13:36;13.82;;;9.55;;
22334;SDS011;11335;43.848;25.958;2022-08-18T16:16:22;11.60;;;9.35;;
22334;SDS011;11335;43.848;25.958;2022-08-18T16:19:09;11.02;;;9.57;;
22334;SDS011;11335;43.848;25.958;2022-08-18T16:21:55;11.10;;;9.82;;
22334;SDS011;11335;43.848;25.958;2022-08-18T16:24:40;13.25;;;10.60;;
22334;SDS011;11335;43.848;25.958;2022-08-18T16:27:26;15.68;;;10.40;;
22334;SDS011;11335;43.848;25.958;2022-08-18T16:30:17;14.63;;;9.10;;
22334;SDS011;11335;43.848;25.958;2022-08-18T16:33:05;11.43;;;9.30;;
22334;SDS011;11335;43.848;25.958;2022-08-18T16:35:51;15.07;;;9.02;;
22334;SDS011;11335;43.848;25.958;2022-08-18T16:38:37;13.95;;;9.15;;
22334;SDS011;11335;43.848;25.958;2022-08-18T16:41:23;13.30;;;9.48;;
22334;SDS011;11335;43.848;25.958;2022-08-18T16:44:08;13.60;;;9.57;;
22334;SDS011;11335;43.848;25.958;2022-08-18T16:46:54;16.77;;;9.73;;
22334;SDS011;11335;43.848;25.958;2022-08-18T16:49:40;12.80;;;9.82;;
22334;SDS011;11335;43.848;25.958;2022-08-18T16:52:26;12.05;;;10.15;;
22334;SDS011;11335;43.848;25.958;2022-08-18T16:55:11;13.07;;;9.55;;
22334;SDS011;11335;43.848;25.958;2022-08-18T16:57:57;11.82;;;9.10;;
22334;SDS011;11335;43.848;25.958;2022-08-18T17:01:01;12.10;;;9.75;;
22334;SDS011;11335;43.848;25.958;2022-08-18T17:04:05;13.85;;;9.75;;
22334;SDS011;11335;43.848;25.958;2022-08-18T17:06:51;13.68;;;9.73;;
22334;SDS011;11335;43.848;25.958;2022-08-18T17:09:37;17.58;;;10.43;;
22334;SDS011;11335;43.848;25.958;2022-08-18T17:12:24;15.13;;;10.30;;
22334;SDS011;11335;43.848;25.958;2022-08-18T17:15:10;16.20;;;9.75;;
22334;SDS011;11335;43.848;25.958;2022-08-18T17:17:58;14.60;;;9.80;;
22334;SDS011;11335;43.848;25.958;2022-08-18T17:20:45;14.43;;;9.32;;
22334;SDS011;11335;43.848;25.958;2022-08-18T17:23:31;11.93;;;9.63;;
22334;SDS011;11335;43.848;25.958;2022-08-18T17:26:25;11.73;;;9.07;;
22334;SDS011;11335;43.848;25.958;2022-08-18T17:29:46;11.30;;;9.60;;
22334;SDS011;11335;43.848;25.958;2022-08-18T17:32:44;14.68;;;9.95;;
22334;SDS011;11335;43.848;25.958;2022-08-18T17:35:40;14.13;;;10.90;;
22334;SDS011;11335;43.848;25.958;2022-08-18T17:38:38;12.63;;;10.00;;
22334;SDS011;11335;43.848;25.958;2022-08-18T17:41:30;13.40;;;9.98;;
22334;SDS011;11335;43.848;25.958;2022-08-18T17:44:16;11.95;;;9.75;;
22334;SDS011;11335;43.848;25.958;2022-08-18T17:47:02;12.50;;;10.23;;
22334;SDS011;11335;43.848;25.958;2022-08-18T17:49:48;12.50;;;9.82;;
22334;SDS011;11335;43.848;25.958;2022-08-18T17:53:12;16.23;;;10.10;;
22334;SDS011;11335;43.848;25.958;2022-08-18T17:59:15;16.75;;;10.27;;
22334;SDS011;11335;43.848;25.958;2022-08-18T18:02:15;13.63;;;10.38;;
22334;SDS011;11335;43.848;25.958;2022-08-18T18:05:06;15.18;;;10.77;;
22334;SDS011;11335;43.848;25.958;2022-08-18T18:07:55;12.68;;;10.95;;
22334;SDS011;11335;43.848;25.958;2022-08-18T18:10:47;16.55;;;10.63;;
22334;SDS011;11335;43.848;25.958;2022-08-18T18:13:34;15.90;;;10.10;;
22334;SDS011;11335;43.848;25.958;2022-08-18T18:16:25;16.70;;;11.15;;
22334;SDS011;11335;43.848;25.958;2022-08-18T18:19:19;14.35;;;11.05;;
22334;SDS011;11335;43.848;25.958;2022-08-18T18:22:26;17.15;;;11.13;;
22334;SDS011;11335;43.848;25.958;2022-08-18T18:25:12;14.18;;;11.10;;
22334;SDS011;11335;43.848;25.958;2022-08-18T18:28:29;12.48;;;10.52;;
22334;SDS011;11335;43.848;25.958;2022-08-18T18:31:24;15.00;;;11.82;;
22334;SDS011;11335;43.848;25.958;2022-08-18T18:34:16;17.35;;;10.30;;
22334;SDS011;11335;43.848;25.958;2022-08-18T18:37:29;12.77;;;10.98;;
22334;SDS011;11335;43.848;25.958;2022-08-18T18:40:25;14.05;;;10.60;;
22334;SDS011;11335;43.848;25.958;2022-08-18T18:46:37;16.17;;;11.00;;
22334;SDS011;11335;43.848;25.958;2022-08-18T18:49:51;15.25;;;11.40;;
22334;SDS011;11335;43.848;25.958;2022-08-18T18:59:13;15.20;;;11.35;;